sensor_id;sensor_type;location;lat;lon;timestamp;pressure;altitude;pressure_sealevel;temperature;humidity
17855;BME280;9053;53.358;6.382;2022-07-05T00:02:16;101985.31;;;16.57;89.56
17855;BME280;9053;53.358;6.382;2022-07-05T00:04:46;101989.06;;;16.64;89.11
17855;BME280;9053;53.358;6.382;2022-07-05T00:07:17;101988.19;;;16.65;88.73
17855;BME280;9053;53.358;6.382;2022-07-05T00:09:52;101983.06;;;16.71;88.70
17855;BME280;9053;53.358;6.382;2022-07-05T00:12:25;101983.19;;;16.76;88.56
17855;BME280;9053;53.358;6.382;2022-07-05T00:14:56;101985.88;;;16.77;88.12
17855;BME280;9053;53.358;6.382;2022-07-05T00:17:26;101981.59;;;16.82;88.18
17855;BME280;9053;53.358;6.382;2022-07-05T00:19:56;101978.13;;;16.85;87.96
17855;BME280;9053;53.358;6.382;2022-07-05T00:22:26;101979.03;;;16.85;87.72
17855;BME280;9053;53.358;6.382;2022-07-05T00:24:58;101979.13;;;16.89;87.59
17855;BME280;9053;53.358;6.382;2022-07-05T00:27:28;101989.66;;;16.85;86.75
17855;BME280;9053;53.358;6.382;2022-07-05T00:29:58;101990.56;;;16.86;86.93
17855;BME280;9053;53.358;6.382;2022-07-05T00:32:28;101986.22;;;16.90;86.81
17855;BME280;9053;53.358;6.382;2022-07-05T00:34:57;101988.97;;;16.93;87.02
17855;BME280;9053;53.358;6.382;2022-07-05T00:37:27;101992.63;;;16.96;86.84
17855;BME280;9053;53.358;6.382;2022-07-05T00:40:00;101994.34;;;16.96;87.46
17855;BME280;9053;53.358;6.382;2022-07-05T00:42:30;101989.03;;;16.96;87.39
17855;BME280;9053;53.358;6.382;2022-07-05T00:45:03;101995.97;;;16.91;87.80
17855;BME280;9053;53.358;6.382;2022-07-05T00:47:33;101986.22;;;16.90;87.98
17855;BME280;9053;53.358;6.382;2022-07-05T00:50:04;101990.66;;;16.89;88.22
17855;BME280;9053;53.358;6.382;2022-07-05T00:52:34;101995.88;;;16.86;88.34
17855;BME280;9053;53.358;6.382;2022-07-05T00:55:08;101990.47;;;16.83;87.90
17855;BME280;9053;53.358;6.382;2022-07-05T00:57:38;101986.09;;;16.83;87.95
17855;BME280;9053;53.358;6.382;2022-07-05T01:00:09;101990.38;;;16.78;87.83
17855;BME280;9053;53.358;6.382;2022-07-05T01:02:38;101992.22;;;16.81;87.92
17855;BME280;9053;53.358;6.382;2022-07-05T01:05:08;101993.94;;;16.79;87.79
17855;BME280;9053;53.358;6.382;2022-07-05T01:07:38;101987.56;;;16.75;87.73
17855;BME280;9053;53.358;6.382;2022-07-05T01:10:11;101994.53;;;16.70;87.62
17855;BME280;9053;53.358;6.382;2022-07-05T01:12:41;101991.88;;;16.70;87.73
17855;BME280;9053;53.358;6.382;2022-07-05T01:15:11;101991.78;;;16.67;87.56
17855;BME280;9053;53.358;6.382;2022-07-05T01:17:41;101989.09;;;16.65;87.71
17855;BME280;9053;53.358;6.382;2022-07-05T01:20:11;101987.25;;;16.63;87.56
17855;BME280;9053;53.358;6.382;2022-07-05T01:22:54;101990.72;;;16.60;87.63
17855;BME280;9053;53.358;6.382;2022-07-05T01:25:27;101987.03;;;16.55;87.81
17855;BME280;9053;53.358;6.382;2022-07-05T01:27:58;101991.31;;;16.50;87.96
17855;BME280;9053;53.358;6.382;2022-07-05T01:30:28;101986.75;;;16.44;88.07
17855;BME280;9053;53.358;6.382;2022-07-05T01:32:59;101998.19;;;16.42;88.42
17855;BME280;9053;53.358;6.382;2022-07-05T01:35:29;101993.53;;;16.33;88.49
17855;BME280;9053;53.358;6.382;2022-07-05T01:38:01;101995.91;;;16.24;88.67
17855;BME280;9053;53.358;6.382;2022-07-05T01:40:31;101983.38;;;16.20;89.02
17855;BME280;9053;53.358;6.382;2022-07-05T01:43:02;101977.91;;;16.14;89.16
17855;BME280;9053;53.358;6.382;2022-07-05T01:45:32;101987.66;;;16.15;89.24
17855;BME280;9053;53.358;6.382;2022-07-05T01:48:12;101989.47;;;16.16;89.11
17855;BME280;9053;53.358;6.382;2022-07-05T01:50:45;101986.69;;;16.11;88.94
17855;BME280;9053;53.358;6.382;2022-07-05T01:53:22;101976.88;;;16.09;88.99
17855;BME280;9053;53.358;6.382;2022-07-05T01:55:52;101982.06;;;16.04;88.92
17855;BME280;9053;53.358;6.382;2022-07-05T01:58:23;101977.47;;;15.98;89.22
17855;BME280;9053;53.358;6.382;2022-07-05T02:00:55;101980.78;;;15.91;89.29
17855;BME280;9053;53.358;6.382;2022-07-05T02:03:25;101978.84;;;15.86;89.51
17855;BME280;9053;53.358;6.382;2022-07-05T02:06:15;101975.09;;;15.79;89.73
17855;BME280;9053;53.358;6.382;2022-07-05T02:08:47;101983.78;;;15.73;89.90
17855;BME280;9053;53.358;6.382;2022-07-05T02:11:17;101976.28;;;15.60;90.45
17855;BME280;9053;53.358;6.382;2022-07-05T02:13:47;101978.63;;;15.51;90.85
17855;BME280;9053;53.358;6.382;2022-07-05T02:16:17;101982.94;;;15.47;90.92
17855;BME280;9053;53.358;6.382;2022-07-05T02:18:47;101980.97;;;15.42;91.14
17855;BME280;9053;53.358;6.382;2022-07-05T02:21:17;101980.06;;;15.40;91.30
17855;BME280;9053;53.358;6.382;2022-07-05T02:23:50;101974.63;;;15.36;91.29
17855;BME280;9053;53.358;6.382;2022-07-05T02:26:20;101987.78;;;15.33;91.48
17855;BME280;9053;53.358;6.382;2022-07-05T02:28:50;101984.16;;;15.30;91.62
17855;BME280;9053;53.358;6.382;2022-07-05T02:31:19;101990.19;;;15.26;91.72
17855;BME280;9053;53.358;6.382;2022-07-05T02:33:50;101990.13;;;15.24;92.04
17855;BME280;9053;53.358;6.382;2022-07-05T02:36:21;101985.59;;;15.20;91.97
17855;BME280;9053;53.358;6.382;2022-07-05T02:38:53;101988.00;;;15.12;92.14
17855;BME280;9053;53.358;6.382;2022-07-05T02:41:23;101986.94;;;15.07;92.31
17855;BME280;9053;53.358;6.382;2022-07-05T02:43:52;101986.81;;;15.04;92.36
17855;BME280;9053;53.358;6.382;2022-07-05T02:46:32;101981.41;;;15.01;92.48
17855;BME280;9053;53.358;6.382;2022-07-05T02:49:01;101983.00;;;14.96;92.57
17855;BME280;9053;53.358;6.382;2022-07-05T02:51:31;101981.13;;;14.92;92.62
17855;BME280;9053;53.358;6.382;2022-07-05T02:54:04;101993.41;;;14.90;92.58
17855;BME280;9053;53.358;6.382;2022-07-05T02:56:33;101993.25;;;14.85;92.69
17855;BME280;9053;53.358;6.382;2022-07-05T02:59:03;101990.53;;;14.84;92.56
17855;BME280;9053;53.358;6.382;2022-07-05T03:01:33;101986.03;;;14.81;92.63
17855;BME280;9053;53.358;6.382;2022-07-05T03:04:03;101996.59;;;14.80;92.58
17855;BME280;9053;53.358;6.382;2022-07-05T03:06:35;101996.50;;;14.77;92.51
17855;BME280;9053;53.358;6.382;2022-07-05T03:09:08;102001.81;;;14.78;92.44
17855;BME280;9053;53.358;6.382;2022-07-05T03:11:38;101999.88;;;14.73;92.71
17855;BME280;9053;53.358;6.382;2022-07-05T03:14:07;101995.28;;;14.68;93.10
17855;BME280;9053;53.358;6.382;2022-07-05T03:16:37;101997.94;;;14.68;93.35
17855;BME280;9053;53.358;6.382;2022-07-05T03:19:11;101993.59;;;14.70;93.47
17855;BME280;9053;53.358;6.382;2022-07-05T03:21:40;101993.72;;;14.74;93.36
17855;BME280;9053;53.358;6.382;2022-07-05T03:24:13;101993.84;;;14.77;93.53
17855;BME280;9053;53.358;6.382;2022-07-05T03:26:43;101993.78;;;14.75;93.38
17855;BME280;9053;53.358;6.382;2022-07-05T03:29:14;101995.63;;;14.78;93.69
17855;BME280;9053;53.358;6.382;2022-07-05T03:31:44;101998.34;;;14.79;93.62
17855;BME280;9053;53.358;6.382;2022-07-05T03:34:14;102001.13;;;14.84;93.64
17855;BME280;9053;53.358;6.382;2022-07-05T03:36:43;101999.53;;;14.89;93.81
17855;BME280;9053;53.358;6.382;2022-07-05T03:39:16;101992.50;;;14.89;94.16
17855;BME280;9053;53.358;6.382;2022-07-05T03:41:45;101997.84;;;14.91;94.50
17855;BME280;9053;53.358;6.382;2022-07-05T03:44:15;102000.75;;;14.99;94.68
17855;BME280;9053;53.358;6.382;2022-07-05T03:46:45;102001.88;;;15.05;94.90
17855;BME280;9053;53.358;6.382;2022-07-05T03:49:16;101995.88;;;15.11;95.00
17855;BME280;9053;53.358;6.382;2022-07-05T03:51:45;101991.69;;;15.18;95.03
17855;BME280;9053;53.358;6.382;2022-07-05T03:54:18;102002.47;;;15.24;94.93
17855;BME280;9053;53.358;6.382;2022-07-05T03:56:48;101992.84;;;15.26;94.96
17855;BME280;9053;53.358;6.382;2022-07-05T03:59:17;101997.44;;;15.31;94.77
17855;BME280;9053;53.358;6.382;2022-07-05T04:01:47;101996.72;;;15.37;94.76
17855;BME280;9053;53.358;6.382;2022-07-05T04:04:17;101998.44;;;15.35;94.81
17855;BME280;9053;53.358;6.382;2022-07-05T04:06:47;102002.25;;;15.43;94.86
17855;BME280;9053;53.358;6.382;2022-07-05T04:09:19;102003.22;;;15.47;94.86
17855;BME280;9053;53.358;6.382;2022-07-05T04:11:49;102005.06;;;15.49;94.60
17855;BME280;9053;53.358;6.382;2022-07-05T04:14:19;101996.78;;;15.66;94.86
17855;BME280;9053;53.358;6.382;2022-07-05T04:16:49;102006.44;;;15.92;95.37
17855;BME280;9053;53.358;6.382;2022-07-05T04:19:18;102008.19;;;16.20;94.74
17855;BME280;9053;53.358;6.382;2022-07-05T04:21:48;102007.19;;;16.47;93.86
17855;BME280;9053;53.358;6.382;2022-07-05T04:24:21;102006.09;;;16.72;92.22
17855;BME280;9053;53.358;6.382;2022-07-05T04:26:51;102011.41;;;17.04;90.85
17855;BME280;9053;53.358;6.382;2022-07-05T04:29:23;102004.44;;;17.45;90.30
17855;BME280;9053;53.358;6.382;2022-07-05T04:31:56;102012.31;;;17.77;88.49
17855;BME280;9053;53.358;6.382;2022-07-05T04:34:26;102011.28;;;18.10;87.00
17855;BME280;9053;53.358;6.382;2022-07-05T04:36:56;102010.97;;;18.38;85.33
17855;BME280;9053;53.358;6.382;2022-07-05T04:39:28;102012.50;;;18.71;84.57
17855;BME280;9053;53.358;6.382;2022-07-05T04:41:58;102002.34;;;18.96;82.78
17855;BME280;9053;53.358;6.382;2022-07-05T04:44:27;102003.66;;;19.21;82.08
17855;BME280;9053;53.358;6.382;2022-07-05T04:46:57;102000.50;;;19.46;81.43
17855;BME280;9053;53.358;6.382;2022-07-05T04:49:27;102011.59;;;19.71;80.54
17855;BME280;9053;53.358;6.382;2022-07-05T04:51:57;102017.34;;;19.99;79.11
17855;BME280;9053;53.358;6.382;2022-07-05T04:54:29;102012.25;;;20.19;78.78
17855;BME280;9053;53.358;6.382;2022-07-05T04:56:59;102020.53;;;20.40;78.03
17855;BME280;9053;53.358;6.382;2022-07-05T04:59:29;102009.25;;;20.64;77.28
17855;BME280;9053;53.358;6.382;2022-07-05T05:02:04;102013.06;;;20.88;75.67
17855;BME280;9053;53.358;6.382;2022-07-05T05:04:34;102008.81;;;21.10;75.88
17855;BME280;9053;53.358;6.382;2022-07-05T05:07:04;102008.97;;;21.31;74.65
17855;BME280;9053;53.358;6.382;2022-07-05T05:09:36;102008.25;;;21.49;74.07
17855;BME280;9053;53.358;6.382;2022-07-05T05:12:07;102024.47;;;21.71;74.00
17855;BME280;9053;53.358;6.382;2022-07-05T05:14:37;102012.06;;;21.90;73.06
17855;BME280;9053;53.358;6.382;2022-07-05T05:17:07;102015.78;;;22.10;72.92
17855;BME280;9053;53.358;6.382;2022-07-05T05:19:37;102023.00;;;22.25;72.09
17855;BME280;9053;53.358;6.382;2022-07-05T05:22:07;102026.63;;;22.39;71.90
17855;BME280;9053;53.358;6.382;2022-07-05T05:24:39;102032.97;;;22.61;71.85
17855;BME280;9053;53.358;6.382;2022-07-05T05:27:09;102030.34;;;22.84;70.90
17855;BME280;9053;53.358;6.382;2022-07-05T05:29:39;102023.25;;;23.05;70.52
17855;BME280;9053;53.358;6.382;2022-07-05T05:32:09;102024.16;;;23.24;70.64
17855;BME280;9053;53.358;6.382;2022-07-05T05:34:42;102025.94;;;23.29;70.06
17855;BME280;9053;53.358;6.382;2022-07-05T05:37:11;102017.88;;;23.08;69.62
17855;BME280;9053;53.358;6.382;2022-07-05T05:39:44;102021.41;;;22.76;70.50
17855;BME280;9053;53.358;6.382;2022-07-05T05:42:14;102018.66;;;22.53;71.15
17855;BME280;9053;53.358;6.382;2022-07-05T05:44:44;102026.72;;;22.61;71.99
17855;BME280;9053;53.358;6.382;2022-07-05T05:47:13;102026.78;;;22.88;71.72
17855;BME280;9053;53.358;6.382;2022-07-05T05:49:43;102022.38;;;23.06;71.07
17855;BME280;9053;53.358;6.382;2022-07-05T05:52:14;102025.94;;;23.02;70.33
17855;BME280;9053;53.358;6.382;2022-07-05T05:54:46;102035.69;;;22.74;70.61
17855;BME280;9053;53.358;6.382;2022-07-05T05:57:16;102032.09;;;22.64;72.61
17855;BME280;9053;53.358;6.382;2022-07-05T05:59:46;102032.13;;;22.82;72.41
17855;BME280;9053;53.358;6.382;2022-07-05T06:02:15;102034.00;;;23.03;72.03
17855;BME280;9053;53.358;6.382;2022-07-05T06:04:46;102034.88;;;23.25;71.29
17855;BME280;9053;53.358;6.382;2022-07-05T06:07:16;102030.41;;;23.46;71.07
17855;BME280;9053;53.358;6.382;2022-07-05T06:09:49;102033.06;;;23.72;70.68
17855;BME280;9053;53.358;6.382;2022-07-05T06:12:21;102037.53;;;23.99;70.74
17855;BME280;9053;53.358;6.382;2022-07-05T06:14:51;102033.91;;;24.09;69.42
17855;BME280;9053;53.358;6.382;2022-07-05T06:17:21;102034.81;;;24.02;69.74
17855;BME280;9053;53.358;6.382;2022-07-05T06:19:50;102036.59;;;24.09;69.38
17855;BME280;9053;53.358;6.382;2022-07-05T06:22:20;102033.84;;;24.22;69.34
17855;BME280;9053;53.358;6.382;2022-07-05T06:24:52;102044.56;;;24.26;68.99
17855;BME280;9053;53.358;6.382;2022-07-05T06:27:44;102039.19;;;24.37;68.23
17855;BME280;9053;53.358;6.382;2022-07-05T06:30:15;102037.34;;;24.48;68.13
17855;BME280;9053;53.358;6.382;2022-07-05T06:32:47;102042.72;;;24.51;67.84
17855;BME280;9053;53.358;6.382;2022-07-05T06:35:17;102030.94;;;24.71;68.09
17855;BME280;9053;53.358;6.382;2022-07-05T06:37:49;102033.63;;;24.75;67.77
17855;BME280;9053;53.358;6.382;2022-07-05T06:40:23;102026.34;;;24.88;67.24
17855;BME280;9053;53.358;6.382;2022-07-05T06:42:54;102038.03;;;24.84;66.43
17855;BME280;9053;53.358;6.382;2022-07-05T06:45:25;102028.28;;;24.68;66.09
17855;BME280;9053;53.358;6.382;2022-07-05T06:47:55;102035.50;;;24.63;66.38
17855;BME280;9053;53.358;6.382;2022-07-05T06:50:28;102034.66;;;24.50;66.85
17855;BME280;9053;53.358;6.382;2022-07-05T06:53:00;102039.19;;;24.37;67.09
17855;BME280;9053;53.358;6.382;2022-07-05T06:55:33;102040.06;;;24.42;67.82
17855;BME280;9053;53.358;6.382;2022-07-05T06:58:04;102037.34;;;24.39;67.23
17855;BME280;9053;53.358;6.382;2022-07-05T07:00:38;102037.31;;;24.51;67.17
17855;BME280;9053;53.358;6.382;2022-07-05T07:03:28;102032.78;;;24.66;66.84
17855;BME280;9053;53.358;6.382;2022-07-05T07:06:19;102044.53;;;24.46;66.81
17855;BME280;9053;53.358;6.382;2022-07-05T07:08:49;102039.25;;;24.15;67.34
17855;BME280;9053;53.358;6.382;2022-07-05T07:11:33;102038.44;;;23.58;68.11
17855;BME280;9053;53.358;6.382;2022-07-05T07:14:03;102049.19;;;23.10;69.62
17855;BME280;9053;53.358;6.382;2022-07-05T07:16:33;102054.53;;;23.00;70.26
17855;BME280;9053;53.358;6.382;2022-07-05T07:19:03;102055.34;;;22.77;70.74
17855;BME280;9053;53.358;6.382;2022-07-05T07:21:40;102059.81;;;22.63;70.80
17855;BME280;9053;53.358;6.382;2022-07-05T07:24:11;102054.34;;;22.38;71.40
17855;BME280;9053;53.358;6.382;2022-07-05T07:26:43;102058.78;;;22.33;71.27
17855;BME280;9053;53.358;6.382;2022-07-05T07:29:25;102053.41;;;22.35;71.01
17855;BME280;9053;53.358;6.382;2022-07-05T07:31:55;102052.47;;;22.20;70.96
17855;BME280;9053;53.358;6.382;2022-07-05T07:34:26;102056.94;;;22.24;70.68
17855;BME280;9053;53.358;6.382;2022-07-05T07:36:59;102057.84;;;22.23;70.52
17855;BME280;9053;53.358;6.382;2022-07-05T07:39:29;102064.88;;;22.06;71.33
17855;BME280;9053;53.358;6.382;2022-07-05T07:42:03;102070.09;;;21.89;70.71
17855;BME280;9053;53.358;6.382;2022-07-05T07:44:33;102070.03;;;21.78;70.16
17855;BME280;9053;53.358;6.382;2022-07-05T07:47:03;102069.97;;;21.69;71.03
17855;BME280;9053;53.358;6.382;2022-07-05T07:49:35;102078.88;;;21.67;71.73
17855;BME280;9053;53.358;6.382;2022-07-05T07:52:12;102077.13;;;21.72;70.57
17855;BME280;9053;53.358;6.382;2022-07-05T07:54:42;102083.47;;;21.86;69.99
17855;BME280;9053;53.358;6.382;2022-07-05T07:57:15;102077.28;;;21.90;69.36
17855;BME280;9053;53.358;6.382;2022-07-05T07:59:45;102074.59;;;21.90;69.45
17855;BME280;9053;53.358;6.382;2022-07-05T08:02:15;102088.81;;;21.80;70.61
17855;BME280;9053;53.358;6.382;2022-07-05T08:04:48;102076.22;;;21.68;70.84
17855;BME280;9053;53.358;6.382;2022-07-05T08:07:17;102077.88;;;21.51;71.00
17855;BME280;9053;53.358;6.382;2022-07-05T08:09:47;102090.28;;;21.41;72.28
17855;BME280;9053;53.358;6.382;2022-07-05T08:12:22;102083.16;;;21.43;72.84
17855;BME280;9053;53.358;6.382;2022-07-05T08:14:51;102084.06;;;21.45;73.53
17855;BME280;9053;53.358;6.382;2022-07-05T08:17:21;102091.13;;;21.38;72.93
17855;BME280;9053;53.358;6.382;2022-07-05T08:19:51;102084.69;;;21.20;72.39
17855;BME280;9053;53.358;6.382;2022-07-05T08:22:33;102094.47;;;21.19;72.57
17855;BME280;9053;53.358;6.382;2022-07-05T08:25:03;102086.50;;;21.24;72.59
17855;BME280;9053;53.358;6.382;2022-07-05T08:27:36;102100.81;;;21.27;72.09
17855;BME280;9053;53.358;6.382;2022-07-05T08:30:10;102100.03;;;21.37;72.60
17855;BME280;9053;53.358;6.382;2022-07-05T08:32:40;102093.72;;;21.29;72.49
17855;BME280;9053;53.358;6.382;2022-07-05T08:35:09;102086.50;;;21.24;72.80
17855;BME280;9053;53.358;6.382;2022-07-05T08:37:39;102092.72;;;21.21;72.79
17855;BME280;9053;53.358;6.382;2022-07-05T08:40:09;102087.31;;;21.16;73.22
17855;BME280;9053;53.358;6.382;2022-07-05T08:42:43;102097.16;;;21.17;72.77
17855;BME280;9053;53.358;6.382;2022-07-05T08:45:13;102087.25;;;21.09;73.39
17855;BME280;9053;53.358;6.382;2022-07-05T08:47:44;102090.63;;;20.91;72.16
17855;BME280;9053;53.358;6.382;2022-07-05T08:50:15;102101.31;;;20.91;72.82
17855;BME280;9053;53.358;6.382;2022-07-05T08:52:46;102080.88;;;20.96;72.62
17855;BME280;9053;53.358;6.382;2022-07-05T08:55:16;102096.00;;;20.94;73.02
17855;BME280;9053;53.358;6.382;2022-07-05T08:57:49;102097.78;;;20.93;73.35
17855;BME280;9053;53.358;6.382;2022-07-05T09:00:19;102104.09;;;20.97;73.42
17855;BME280;9053;53.358;6.382;2022-07-05T09:02:49;102106.69;;;20.94;72.98
17855;BME280;9053;53.358;6.382;2022-07-05T09:05:20;102111.09;;;20.89;73.11
17855;BME280;9053;53.358;6.382;2022-07-05T09:07:58;102109.28;;;20.85;73.29
17855;BME280;9053;53.358;6.382;2022-07-05T09:10:30;102106.66;;;20.88;74.01
17855;BME280;9053;53.358;6.382;2022-07-05T09:13:03;102112.03;;;20.94;73.82
17855;BME280;9053;53.358;6.382;2022-07-05T09:15:33;102114.84;;;21.03;72.31
17855;BME280;9053;53.358;6.382;2022-07-05T09:18:03;102109.59;;;21.12;69.38
17855;BME280;9053;53.358;6.382;2022-07-05T09:20:33;102106.97;;;21.18;68.80
17855;BME280;9053;53.358;6.382;2022-07-05T09:23:03;102113.28;;;21.27;68.98
17855;BME280;9053;53.358;6.382;2022-07-05T09:25:32;102111.53;;;21.29;68.14
17855;BME280;9053;53.358;6.382;2022-07-05T09:28:05;102111.59;;;21.35;68.00
17855;BME280;9053;53.358;6.382;2022-07-05T09:30:37;102109.88;;;21.38;68.77
17855;BME280;9053;53.358;6.382;2022-07-05T09:33:10;102112.53;;;21.38;69.98
17855;BME280;9053;53.358;6.382;2022-07-05T09:35:42;102119.66;;;21.38;70.13
17855;BME280;9053;53.358;6.382;2022-07-05T09:38:18;102132.13;;;21.36;71.28
17855;BME280;9053;53.358;6.382;2022-07-05T09:40:49;102133.00;;;21.35;72.02
17855;BME280;9053;53.358;6.382;2022-07-05T09:43:23;102137.41;;;21.30;72.87
17855;BME280;9053;53.358;6.382;2022-07-05T09:45:54;102128.44;;;21.26;71.57
17855;BME280;9053;53.358;6.382;2022-07-05T09:48:25;102120.66;;;21.46;71.53
17855;BME280;9053;53.358;6.382;2022-07-05T09:51:07;102133.03;;;21.38;69.34
17855;BME280;9053;53.358;6.382;2022-07-05T09:53:58;102128.63;;;21.40;69.82
17855;BME280;9053;53.358;6.382;2022-07-05T09:56:45;102132.06;;;21.30;70.11
17855;BME280;9053;53.358;6.382;2022-07-05T09:59:19;102125.69;;;21.18;70.65
17855;BME280;9053;53.358;6.382;2022-07-05T10:01:49;102133.75;;;21.22;71.06
17855;BME280;9053;53.358;6.382;2022-07-05T10:04:20;102132.84;;;21.20;71.38
17855;BME280;9053;53.358;6.382;2022-07-05T10:06:50;102129.41;;;21.30;72.28
17855;BME280;9053;53.358;6.382;2022-07-05T10:09:21;102126.72;;;21.31;72.53
17855;BME280;9053;53.358;6.382;2022-07-05T10:11:51;102132.00;;;21.27;71.73
17855;BME280;9053;53.358;6.382;2022-07-05T10:14:24;102139.19;;;21.31;72.77
17855;BME280;9053;53.358;6.382;2022-07-05T10:17:00;102139.22;;;21.32;73.66
17855;BME280;9053;53.358;6.382;2022-07-05T10:19:33;102136.69;;;21.46;73.55
17855;BME280;9053;53.358;6.382;2022-07-05T10:22:09;102136.00;;;21.66;73.53
17855;BME280;9053;53.358;6.382;2022-07-05T10:24:45;102133.34;;;21.72;72.85
17855;BME280;9053;53.358;6.382;2022-07-05T10:27:17;102135.03;;;21.57;72.63
17855;BME280;9053;53.358;6.382;2022-07-05T10:29:51;102139.38;;;21.46;72.35
17855;BME280;9053;53.358;6.382;2022-07-05T10:32:23;102142.91;;;21.41;72.69
17855;BME280;9053;53.358;6.382;2022-07-05T10:34:53;102143.78;;;21.39;72.16
17855;BME280;9053;53.358;6.382;2022-07-05T10:37:26;102143.63;;;21.27;71.43
17855;BME280;9053;53.358;6.382;2022-07-05T10:39:58;102154.22;;;21.18;71.82
17855;BME280;9053;53.358;6.382;2022-07-05T10:42:31;102154.97;;;21.02;72.55
17855;BME280;9053;53.358;6.382;2022-07-05T10:45:22;102160.25;;;20.97;72.80
17855;BME280;9053;53.358;6.382;2022-07-05T10:48:13;102148.78;;;21.07;72.45
17855;BME280;9053;53.358;6.382;2022-07-05T10:50:49;102155.81;;;20.99;72.43
17855;BME280;9053;53.358;6.382;2022-07-05T10:53:21;102156.84;;;21.13;73.18
17855;BME280;9053;53.358;6.382;2022-07-05T10:55:53;102160.41;;;21.12;71.51
17855;BME280;9053;53.358;6.382;2022-07-05T10:58:25;102162.22;;;21.16;72.42
17855;BME280;9053;53.358;6.382;2022-07-05T11:04:11;102166.59;;;21.08;74.04
17855;BME280;9053;53.358;6.382;2022-07-05T11:06:43;102161.50;;;21.31;72.81
17855;BME280;9053;53.358;6.382;2022-07-05T11:09:14;102165.31;;;21.50;71.82
17855;BME280;9053;53.358;6.382;2022-07-05T11:11:46;102170.81;;;21.66;72.26
17855;BME280;9053;53.358;6.382;2022-07-05T11:14:36;102169.09;;;21.77;73.90
17855;BME280;9053;53.358;6.382;2022-07-05T11:17:21;102170.00;;;21.76;73.90
17855;BME280;9053;53.358;6.382;2022-07-05T11:20:32;102155.88;;;21.97;72.21
17855;BME280;9053;53.358;6.382;2022-07-05T11:23:07;102158.63;;;22.03;72.33
17855;BME280;9053;53.358;6.382;2022-07-05T11:25:39;102164.81;;;21.96;71.78
17855;BME280;9053;53.358;6.382;2022-07-05T11:28:15;102158.44;;;21.85;72.45
17855;BME280;9053;53.358;6.382;2022-07-05T11:30:56;102166.50;;;21.86;73.02
17855;BME280;9053;53.358;6.382;2022-07-05T11:33:37;102158.50;;;21.92;73.41
17855;BME280;9053;53.358;6.382;2022-07-05T11:36:29;102166.63;;;22.01;72.55
17855;BME280;9053;53.358;6.382;2022-07-05T11:39:07;102177.19;;;21.83;70.73
17855;BME280;9053;53.358;6.382;2022-07-05T11:41:42;102175.25;;;21.65;71.47
17855;BME280;9053;53.358;6.382;2022-07-05T11:44:12;102174.31;;;21.61;70.56
17855;BME280;9053;53.358;6.382;2022-07-05T11:46:43;102177.91;;;21.60;70.75
17855;BME280;9053;53.358;6.382;2022-07-05T11:49:19;102177.91;;;21.62;69.92
17855;BME280;9053;53.358;6.382;2022-07-05T11:51:57;102175.13;;;21.54;69.64
17855;BME280;9053;53.358;6.382;2022-07-05T11:54:28;102183.03;;;21.41;68.16
17855;BME280;9053;53.358;6.382;2022-07-05T11:56:59;102178.44;;;21.30;67.67
17855;BME280;9053;53.358;6.382;2022-07-05T11:59:29;102172.22;;;21.30;68.99
17855;BME280;9053;53.358;6.382;2022-07-05T12:02:06;102173.81;;;21.15;67.16
17855;BME280;9053;53.358;6.382;2022-07-05T12:04:36;102169.38;;;21.14;67.82
17855;BME280;9053;53.358;6.382;2022-07-05T12:07:09;102179.19;;;21.18;68.66
17855;BME280;9053;53.358;6.382;2022-07-05T12:09:41;102173.81;;;21.15;67.11
17855;BME280;9053;53.358;6.382;2022-07-05T12:12:24;102179.34;;;21.29;66.81
17855;BME280;9053;53.358;6.382;2022-07-05T12:15:07;102179.38;;;21.34;67.12
17855;BME280;9053;53.358;6.382;2022-07-05T12:17:38;102185.78;;;21.45;67.35
17855;BME280;9053;53.358;6.382;2022-07-05T12:20:10;102186.63;;;21.39;67.38
17855;BME280;9053;53.358;6.382;2022-07-05T12:22:44;102183.13;;;21.48;67.18
17855;BME280;9053;53.358;6.382;2022-07-05T12:25:16;102183.97;;;21.44;67.46
17855;BME280;9053;53.358;6.382;2022-07-05T12:27:48;102181.19;;;21.35;67.62
17855;BME280;9053;53.358;6.382;2022-07-05T12:30:19;102183.22;;;21.59;68.58
17855;BME280;9053;53.358;6.382;2022-07-05T12:32:59;102180.63;;;21.68;67.58
17855;BME280;9053;53.358;6.382;2022-07-05T12:35:34;102180.72;;;21.76;67.91
17855;BME280;9053;53.358;6.382;2022-07-05T12:38:09;102184.25;;;21.70;67.80
17855;BME280;9053;53.358;6.382;2022-07-05T12:40:40;102185.09;;;21.68;69.17
17855;BME280;9053;53.358;6.382;2022-07-05T12:43:12;102188.66;;;21.68;69.22
17855;BME280;9053;53.358;6.382;2022-07-05T12:45:43;102177.91;;;21.64;69.17
17855;BME280;9053;53.358;6.382;2022-07-05T12:48:13;102181.59;;;21.76;71.05
17855;BME280;9053;53.358;6.382;2022-07-05T12:50:46;102179.81;;;21.77;70.72
17855;BME280;9053;53.358;6.382;2022-07-05T12:53:47;102184.47;;;21.99;71.22
17855;BME280;9053;53.358;6.382;2022-07-05T12:56:29;102169.38;;;22.11;69.48
17855;BME280;9053;53.358;6.382;2022-07-05T12:59:34;102180.94;;;22.07;69.20
17855;BME280;9053;53.358;6.382;2022-07-05T13:02:04;102180.13;;;22.17;69.37
17855;BME280;9053;53.358;6.382;2022-07-05T13:04:34;102179.38;;;22.29;69.98
17855;BME280;9053;53.358;6.382;2022-07-05T13:07:09;102188.38;;;22.41;70.12
17855;BME280;9053;53.358;6.382;2022-07-05T13:10:18;102178.56;;;22.40;68.81
17855;BME280;9053;53.358;6.382;2022-07-05T13:12:49;102185.69;;;22.38;66.39
17855;BME280;9053;53.358;6.382;2022-07-05T13:15:19;102183.88;;;22.36;66.63
17855;BME280;9053;53.358;6.382;2022-07-05T13:17:50;102189.19;;;22.31;68.23
17855;BME280;9053;53.358;6.382;2022-07-05T13:20:20;102189.91;;;22.09;66.85
17855;BME280;9053;53.358;6.382;2022-07-05T13:22:50;102193.50;;;22.12;67.24
17855;BME280;9053;53.358;6.382;2022-07-05T13:25:22;102200.53;;;21.98;66.10
17855;BME280;9053;53.358;6.382;2022-07-05T13:27:52;102202.06;;;21.68;67.40
17855;BME280;9053;53.358;6.382;2022-07-05T13:30:22;102195.84;;;21.71;67.09
17855;BME280;9053;53.358;6.382;2022-07-05T13:32:52;102201.22;;;21.77;66.41